createdAt,value
2023-11-30T00:02:43.674Z,2.12
2023-11-30T00:07:49.218Z,2.00
2023-11-30T00:12:53.254Z,1.91
2023-11-30T00:17:57.460Z,1.87
2023-11-30T00:23:03.019Z,1.85
2023-11-30T00:28:07.159Z,1.85
2023-11-30T00:33:11.394Z,1.99
2023-11-30T00:38:17.278Z,1.99
2023-11-30T00:43:21.354Z,1.96
2023-11-30T00:48:25.604Z,1.99
2023-11-30T00:53:31.177Z,2.28
2023-11-30T00:58:36.459Z,2.60
2023-11-30T01:03:40.487Z,2.69
2023-11-30T01:08:45.888Z,2.62
2023-11-30T01:13:49.975Z,2.70
2023-11-30T01:18:54.238Z,2.68
2023-11-30T01:24:00.476Z,2.77
2023-11-30T01:29:04.882Z,2.62
2023-11-30T01:34:09.670Z,2.39
2023-11-30T01:39:16.992Z,2.39
2023-11-30T01:44:21.212Z,2.46
2023-11-30T01:49:25.397Z,2.29
2023-11-30T01:54:31.121Z,2.38
2023-11-30T01:59:35.379Z,2.29
2023-11-30T02:04:43.742Z,2.05
2023-11-30T02:09:49.243Z,2.34
2023-11-30T02:14:53.537Z,2.23
2023-11-30T02:19:59.350Z,2.31
2023-11-30T02:25:05.098Z,2.29
2023-11-30T02:30:10.419Z,2.31
2023-11-30T02:35:14.604Z,2.22
2023-11-30T02:40:20.768Z,2.34
2023-11-30T02:45:25.114Z,2.28
2023-11-30T02:50:29.174Z,1.97
2023-11-30T02:55:35.245Z,2.31
2023-11-30T03:00:39.243Z,2.88
2023-11-30T03:05:43.297Z,2.63
2023-11-30T03:10:50.853Z,2.50
2023-11-30T03:15:57.006Z,2.62
2023-11-30T03:21:01.411Z,2.92
2023-11-30T03:26:08.793Z,2.69
2023-11-30T03:31:12.939Z,2.70
2023-11-30T03:36:17.450Z,2.55
2023-11-30T03:41:23.114Z,2.73
2023-11-30T03:46:27.874Z,2.86
2023-11-30T03:51:32.331Z,3.13
2023-11-30T03:56:37.865Z,3.19
2023-11-30T04:01:42.199Z,2.68
2023-11-30T04:06:46.834Z,2.78
2023-11-30T04:11:52.507Z,3.06
2023-11-30T04:16:56.663Z,2.67
2023-11-30T04:22:01.036Z,2.77
2023-11-30T04:27:06.601Z,2.59
2023-11-30T04:32:10.661Z,2.40
2023-11-30T04:37:14.626Z,2.26
2023-11-30T04:42:20.122Z,2.24
2023-11-30T04:47:24.611Z,2.29
2023-11-30T04:52:28.789Z,2.51
2023-11-30T04:57:34.329Z,2.56
2023-11-30T05:02:39.792Z,2.51
2023-11-30T05:07:44.422Z,2.67
2023-11-30T05:12:49.907Z,2.87
2023-11-30T05:17:54.206Z,2.58
2023-11-30T05:22:58.280Z,2.67
2023-11-30T05:28:05.444Z,2.46
2023-11-30T05:33:10.020Z,2.20
2023-11-30T05:38:14.285Z,2.00
2023-11-30T05:43:19.911Z,2.07
2023-11-30T05:48:24.459Z,2.05
2023-11-30T05:53:28.597Z,2.02
2023-11-30T05:58:36.169Z,1.93
2023-11-30T06:03:41.836Z,2.04
2023-11-30T06:08:47.789Z,2.07
2023-11-30T06:13:53.178Z,2.05
2023-11-30T06:18:58.031Z,2.25
2023-11-30T06:24:02.409Z,2.24
2023-11-30T06:29:09.415Z,2.02
2023-11-30T06:34:13.504Z,1.96
2023-11-30T06:39:17.569Z,1.86
2023-11-30T06:44:23.281Z,1.70
2023-11-30T06:49:27.322Z,2.00
2023-11-30T06:54:31.320Z,1.97
2023-11-30T06:59:37.864Z,1.67
2023-11-30T07:04:42.018Z,1.71
2023-11-30T07:09:46.845Z,1.92
2023-11-30T07:14:52.282Z,1.83
2023-11-30T07:19:56.357Z,1.70
2023-11-30T07:25:02.129Z,1.56
2023-11-30T07:30:11.891Z,1.81
2023-11-30T07:35:15.928Z,1.59
2023-11-30T07:40:22.625Z,1.62
2023-11-30T07:45:28.610Z,1.50
2023-11-30T07:50:33.944Z,1.41
2023-11-30T07:55:38.725Z,2.02
2023-11-30T08:00:47.288Z,2.15
2023-11-30T08:05:51.270Z,2.07
2023-11-30T08:10:59.905Z,2.43
2023-11-30T08:16:06.783Z,2.70
2023-11-30T08:21:10.888Z,2.85
2023-11-30T08:26:16.625Z,3.23
2023-11-30T08:31:23.093Z,3.11
2023-11-30T08:36:27.184Z,3.42
2023-11-30T08:41:31.743Z,3.27
2023-11-30T08:46:37.184Z,2.69
2023-11-30T08:51:45.592Z,2.72
2023-11-30T08:56:51.299Z,3.22
2023-11-30T09:01:56.870Z,2.98
2023-11-30T09:07:01.008Z,2.57
2023-11-30T09:12:05.663Z,2.80
2023-11-30T09:17:11.154Z,2.45
2023-11-30T09:22:16.566Z,2.49
2023-11-30T09:27:20.657Z,2.55
2023-11-30T09:32:26.731Z,2.74
2023-11-30T09:37:31.073Z,3.19
2023-11-30T09:42:36.577Z,3.43
2023-11-30T09:47:44.199Z,3.65
2023-11-30T09:52:48.620Z,3.14
2023-11-30T09:57:52.653Z,2.73
2023-11-30T10:03:00.712Z,3.33
2023-11-30T10:08:04.936Z,3.61
2023-11-30T10:13:08.920Z,4.49
2023-11-30T10:18:14.887Z,4.96
2023-11-30T10:23:19.102Z,5.85
2023-11-30T10:28:23.674Z,7.09
2023-11-30T10:33:31.459Z,7.85
2023-11-30T10:38:36.072Z,8.22
2023-11-30T10:43:43.069Z,8.59
2023-11-30T10:48:49.962Z,8.78
2023-11-30T10:54:02.001Z,8.44
2023-11-30T10:59:14.417Z,7.93
2023-11-30T11:04:22.781Z,7.78
2023-11-30T11:09:28.517Z,8.73
2023-11-30T11:14:34.321Z,9.20
2023-11-30T11:19:43.400Z,9.67
2023-11-30T11:24:48.834Z,8.87
2023-11-30T11:29:53.348Z,8.76
2023-11-30T11:34:58.727Z,8.71
2023-11-30T11:40:04.854Z,9.62
2023-11-30T11:45:09.861Z,10.20
2023-11-30T11:50:16.240Z,10.73
2023-11-30T11:55:27.862Z,11.09
2023-11-30T12:00:32.494Z,11.51
2023-11-30T12:05:48.100Z,11.71
2023-11-30T12:10:53.204Z,12.01
2023-11-30T12:15:57.307Z,12.31
2023-11-30T12:21:04.060Z,11.79
2023-11-30T12:26:09.281Z,12.31
2023-11-30T12:31:13.773Z,12.43
2023-11-30T12:36:19.246Z,12.49
2023-11-30T12:41:23.416Z,11.86
2023-11-30T12:46:28.549Z,11.43
2023-11-30T12:51:34.614Z,11.02
2023-11-30T12:56:38.596Z,11.08
2023-11-30T13:01:42.962Z,10.96
2023-11-30T13:06:48.958Z,11.06
2023-11-30T13:11:53.656Z,10.92
2023-11-30T13:16:57.981Z,10.35
2023-11-30T13:22:03.766Z,10.17
2023-11-30T13:27:10.751Z,9.53
2023-11-30T13:32:14.803Z,9.05
2023-11-30T13:37:20.301Z,8.98
2023-11-30T13:42:25.358Z,8.60
2023-11-30T13:47:29.586Z,8.31
2023-11-30T13:52:35.321Z,7.87
2023-11-30T13:57:39.678Z,7.72
2023-11-30T14:02:43.762Z,7.29
2023-11-30T14:07:49.171Z,7.27
2023-11-30T14:12:53.844Z,6.90
2023-11-30T14:17:58.014Z,6.70
2023-11-30T14:23:05.342Z,6.54
2023-11-30T14:28:12.611Z,6.32
2023-11-30T14:33:17.462Z,6.23
2023-11-30T14:38:23.646Z,5.89
2023-11-30T14:43:29.353Z,5.64
2023-11-30T14:48:34.715Z,5.58
2023-11-30T14:53:40.054Z,5.33
2023-11-30T14:58:44.231Z,5.32
2023-11-30T15:03:48.490Z,5.15
2023-11-30T15:08:54.147Z,4.98
2023-11-30T15:13:58.421Z,4.91
2023-11-30T15:19:02.496Z,4.81
2023-11-30T15:24:08.656Z,4.76
2023-11-30T15:29:13.430Z,4.47
2023-11-30T15:34:17.470Z,4.31
2023-11-30T15:39:25.291Z,4.28
2023-11-30T15:44:29.563Z,4.44
2023-11-30T15:49:34.302Z,4.36
2023-11-30T15:54:42.539Z,4.18
2023-11-30T15:59:46.776Z,3.92
2023-11-30T16:04:51.300Z,3.89
2023-11-30T16:09:56.835Z,3.75
2023-11-30T16:15:02.374Z,3.82
2023-11-30T16:20:11.522Z,3.97
2023-11-30T16:25:17.017Z,3.38
2023-11-30T16:30:23.683Z,3.28
2023-11-30T16:35:28.018Z,3.33
2023-11-30T16:40:33.404Z,3.45
2023-11-30T16:45:37.614Z,3.46
2023-11-30T16:50:42.939Z,3.25
2023-11-30T16:55:48.451Z,3.46
2023-11-30T17:00:52.450Z,3.23
2023-11-30T17:05:57.000Z,3.20
2023-11-30T17:11:02.891Z,3.22
2023-11-30T17:16:09.118Z,3.23
2023-11-30T17:21:13.780Z,2.99
2023-11-30T17:26:19.474Z,3.16
2023-11-30T17:31:23.960Z,3.16
2023-11-30T17:36:28.323Z,3.11
2023-11-30T17:41:34.471Z,2.94
2023-11-30T17:46:39.661Z,2.93
2023-11-30T17:51:44.040Z,2.99
2023-11-30T17:56:49.481Z,3.06
2023-11-30T18:01:54.066Z,3.07
2023-11-30T18:06:59.207Z,3.17
2023-11-30T18:12:05.413Z,3.26
2023-11-30T18:17:10.116Z,3.43
2023-11-30T18:22:19.644Z,3.62
2023-11-30T18:27:25.345Z,3.51
2023-11-30T18:32:29.466Z,3.68
2023-11-30T18:37:34.659Z,3.14
2023-11-30T18:42:41.194Z,3.36
2023-11-30T18:47:46.355Z,3.16
2023-11-30T18:52:51.883Z,3.12
2023-11-30T18:57:57.674Z,2.81
2023-11-30T19:03:01.886Z,2.92
2023-11-30T19:08:06.481Z,2.94
2023-11-30T19:13:12.080Z,3.08
2023-11-30T19:18:27.261Z,2.90
2023-11-30T19:23:31.412Z,2.89
2023-11-30T19:28:37.907Z,2.95
2023-11-30T19:33:41.967Z,2.64
2023-11-30T19:38:46.045Z,2.25
2023-11-30T19:43:51.820Z,2.45
2023-11-30T19:48:56.316Z,2.50
2023-11-30T19:54:00.388Z,2.70
2023-11-30T19:59:06.162Z,2.45
2023-11-30T20:04:10.571Z,2.18
2023-11-30T20:09:14.832Z,2.12
2023-11-30T20:14:20.401Z,2.26
2023-11-30T20:19:25.904Z,2.31
2023-11-30T20:24:35.012Z,2.20
2023-11-30T20:29:41.023Z,2.33
2023-11-30T20:34:45.237Z,2.11
2023-11-30T20:39:49.280Z,1.96
2023-11-30T20:44:55.183Z,2.08
2023-11-30T20:49:59.165Z,2.15
2023-11-30T20:55:04.571Z,2.12
2023-11-30T21:00:11.294Z,1.94
2023-11-30T21:05:17.219Z,2.03
2023-11-30T21:10:22.097Z,1.97
2023-11-30T21:15:27.953Z,2.09
2023-11-30T21:20:32.124Z,1.85
2023-11-30T21:25:36.274Z,1.71
2023-11-30T21:30:42.456Z,1.82
2023-11-30T21:35:46.683Z,1.78
2023-11-30T21:40:50.993Z,1.74
2023-11-30T21:45:56.563Z,1.65
2023-11-30T21:51:00.698Z,1.67
2023-11-30T21:56:06.866Z,1.68
2023-11-30T22:01:12.460Z,1.87
2023-11-30T22:06:16.508Z,1.70
2023-11-30T22:11:20.706Z,1.84
2023-11-30T22:16:32.964Z,1.57
2023-11-30T22:21:40.907Z,1.75
2023-11-30T22:26:45.236Z,1.82
2023-11-30T22:31:51.058Z,2.00
2023-11-30T22:36:55.150Z,1.85
2023-11-30T22:41:59.321Z,1.85
2023-11-30T22:47:05.034Z,1.93
2023-11-30T22:52:09.453Z,1.98
2023-11-30T22:57:13.589Z,1.51
2023-11-30T23:02:19.787Z,1.85
2023-11-30T23:07:23.889Z,1.55
2023-11-30T23:12:27.982Z,1.73
2023-11-30T23:17:33.437Z,1.70
2023-11-30T23:22:38.102Z,1.71
2023-11-30T23:27:42.150Z,1.61
2023-11-30T23:32:50.047Z,1.39
2023-11-30T23:37:55.601Z,1.22
2023-11-30T23:42:59.787Z,1.23
2023-11-30T23:48:06.516Z,1.29
2023-11-30T23:53:10.612Z,1.34
2023-11-30T23:58:14.615Z,1.34
